This is the latest recevied weather packets stored in our database for station/object SR9WXZ. If no packets are shown the sender has not sent any weather packets the latest 1 day(s).
| Time | Temp. | Humidity | Pressure | Rain* | Wind** | Luminosity | Snow |
|---|---|---|---|---|---|---|---|
| 1777988261 | 25.56° C | 100% | 0 hPa | - | 5.36 m/s, 117° | - | - |
| 1777987661 | 25.56° C | 100% | 0 hPa | - | 5.81 m/s, 116° | - | - |
| 1777987060 | 26.11° C | 100% | 0 hPa | - | 6.26 m/s, 118° | - | - |
| 1777986760 | 25° C | 100% | 0 hPa | - | 5.81 m/s, 117° | - | - |
| 1777986460 | 25.56° C | 100% | 0 hPa | - | 7.6 m/s, 122° | - | - |
| 1777986160 | 25.56° C | 100% | 0 hPa | - | 6.71 m/s, 122° | - | - |
| 1777985859 | 25° C | 100% | 0 hPa | - | 4.02 m/s, 113° | - | - |
| 1777985559 | 25.56° C | 100% | 0 hPa | - | 5.81 m/s, 116° | - | - |
| 1777985259 | 24.44° C | 100% | 0 hPa | - | 1.79 m/s, 115° | - | - |
| 1777984958 | 23.89° C | 100% | 0 hPa | - | 3.13 m/s, 116° | - | - |
| 1777984646 | 23.89° C | 100% | 0 hPa | - | 1.79 m/s, 114° | - | - |
| 1777984345 | 23.89° C | 100% | 0 hPa | - | 2.68 m/s, 123° | - | - |
| 1777984045 | 23.89° C | 100% | 0 hPa | - | 1.79 m/s, 117° | - | - |
| 1777983744 | 23.89° C | 100% | 0 hPa | - | 4.92 m/s, 117° | - | - |
| 1777983444 | 23.89° C | 100% | 0 hPa | - | 3.58 m/s, 122° | - | - |
| 1777983144 | 23.89° C | 100% | 0 hPa | - | 4.02 m/s, 136° | - | - |
| 1777982844 | 23.89° C | 100% | 0 hPa | - | 3.58 m/s, 132° | - | - |
| 1777982544 | 23.89° C | 100% | 0 hPa | - | 4.02 m/s, 128° | - | - |
| 1777982244 | 23.89° C | 100% | 0 hPa | - | 4.92 m/s, 131° | - | - |
| 1777981943 | 23.89° C | 100% | 0 hPa | - | 5.81 m/s, 128° | - | - |
| 1777981643 | 24.44° C | 100% | 0 hPa | - | 5.36 m/s, 125° | - | - |
| 1777981343 | 24.44° C | 100% | 0 hPa | - | 5.36 m/s, 128° | - | - |
| 1777980743 | 23.89° C | 100% | 0 hPa | - | 3.58 m/s, 117° | - | - |
| 1777980142 | 24.44° C | 100% | 0 hPa | - | 3.58 m/s, 118° | - | - |
| 1777979542 | 24.44° C | 100% | 0 hPa | - | 5.81 m/s, 121° | - | - |
* Rain since midnight (hover to see other rain measurements)
** Current wind speed in m/s (hover to see current wind gust speed)